Time;durP1;ratioP1;P1;durP2;ratioP2;P2;SDS_P1;SDS_P2;PMS_P1;PMS_P2;Temp;Humidity;BMP_temperature;BMP_pressure;BME280_temperature;BME280_humidity;BME280_pressure;Samples;Min_cycle;Max_cycle;Signal;HPM_P1;HPM_P2
2022/09/01 00:00:06;;;;;;;5.43;2.50;;;;;;;16.76;82.44;101192.88;683262;28;1528;-79
2022/09/01 00:00:29;;;;;;;4.50;2.50;;;;;;;16.78;83.53;101193.75;684868;28;1247;-81
2022/09/01 00:00:50;;;;;;;3.60;2.60;;;;;;;16.76;82.32;101208.72;686452;28;4367;-81
2022/09/01 00:01:19;;;;;;;3.55;2.58;;;;;;;16.75;82.65;101180.59;684938;28;1517;-83
2022/09/01 00:01:50;;;;;;;4.13;2.55;;;;;;;16.73;82.75;101187.69;685246;28;1397;-81
2022/09/01 00:02:14;;;;;;;3.92;2.50;;;;;;;16.73;82.50;101184.19;681553;28;1387;-83
2022/09/01 00:02:35;;;;;;;4.53;2.65;;;;;;;16.69;83.53;101194.78;682038;28;1406;-81
2022/09/01 00:02:55;;;;;;;4.53;2.75;;;;;;;16.72;83.33;101193.84;682335;28;1429;-83
2022/09/01 00:03:23;;;;;;;4.13;2.50;;;;;;;16.74;82.73;101183.25;679198;28;1945;-79
2022/09/01 00:03:47;;;;;;;3.58;2.45;;;;;;;16.69;83.29;101205.34;676051;28;4334;-82
2022/09/01 00:04:12;;;;;;;5.32;2.72;;;;;;;16.71;83.87;101186.84;676762;29;1926;-81
2022/09/01 00:04:36;;;;;;;4.13;2.80;;;;;;;16.71;82.42;101188.63;679010;28;1247;-80
2022/09/01 00:04:57;;;;;;;4.50;2.53;;;;;;;16.74;82.16;101214.94;679876;29;1665;-82
2022/09/01 00:05:17;;;;;;;4.68;2.67;;;;;;;16.75;82.70;101217.53;677027;29;1299;-79
2022/09/01 00:05:40;;;;;;;3.60;2.40;;;;;;;16.76;82.51;101186.75;681059;28;1248;-80
2022/09/01 00:06:00;;;;;;;3.50;2.53;;;;;;;16.76;82.45;101205.22;685297;28;1390;-82
2022/09/01 00:06:23;;;;;;;3.67;2.40;;;;;;;16.76;81.61;101194.66;681577;28;1244;-82
2022/09/01 00:06:45;;;;;;;4.35;2.55;;;;;;;16.77;81.82;101210.47;676696;28;4442;-80
2022/09/01 00:07:06;;;;;;;3.90;2.70;;;;;;;16.78;81.97;101191.09;676680;29;1546;-80
2022/09/01 00:07:29;;;;;;;4.28;2.60;;;;;;;16.78;82.06;101196.38;679486;28;1302;-81
2022/09/01 00:07:53;;;;;;;4.43;2.50;;;;;;;16.77;81.82;101202.56;682014;28;1258;-79
2022/09/01 00:08:13;;;;;;;4.90;2.50;;;;;;;16.75;82.73;101200.84;681920;28;1252;-82
2022/09/01 00:08:34;;;;;;;3.90;2.50;;;;;;;16.75;82.71;101185.00;680521;28;1255;-81
2022/09/01 00:08:57;;;;;;;3.90;2.40;;;;;;;16.77;82.69;101189.34;681830;28;1791;-82
2022/09/01 00:09:18;;;;;;;4.38;2.92;;;;;;;16.77;82.40;101194.63;681949;28;1085;-79
2022/09/01 00:09:39;;;;;;;3.95;2.88;;;;;;;16.81;82.42;101190.16;678460;28;4344;-80
2022/09/01 00:10:05;;;;;;;4.70;2.60;;;;;;;16.81;82.84;101203.38;683932;28;1380;-80
2022/09/01 00:10:26;;;;;;;4.80;2.60;;;;;;;16.86;82.65;101206.75;684957;28;1148;-82
2022/09/01 00:10:47;;;;;;;5.63;2.60;;;;;;;16.85;81.70;101182.13;686216;28;1236;-83
2022/09/01 00:11:08;;;;;;;3.90;2.50;;;;;;;16.85;81.61;101186.56;687637;28;1210;-79
2022/09/01 00:11:34;;;;;;;3.63;2.30;;;;;;;16.87;81.78;101189.16;687545;28;1253;-81
2022/09/01 00:11:55;;;;;;;3.60;2.50;;;;;;;16.87;81.20;101182.09;686633;28;1243;-83
2022/09/01 00:12:16;;;;;;;4.00;2.33;;;;;;;16.84;81.29;101205.94;686930;28;1280;-82
2022/09/01 00:12:37;;;;;;;3.70;2.58;;;;;;;16.83;82.09;101194.47;682286;28;1277;-81
2022/09/01 00:12:58;;;;;;;3.40;2.60;;;;;;;16.87;82.20;101178.59;678925;28;4562;-79
2022/09/01 00:13:19;;;;;;;4.38;2.63;;;;;;;16.87;82.36;101179.44;679221;28;1742;-81
2022/09/01 00:13:40;;;;;;;4.20;2.58;;;;;;;16.87;82.12;101192.66;680177;28;1112;-78
2022/09/01 00:14:05;;;;;;;4.13;2.70;;;;;;;16.89;82.07;101209.38;678660;28;1134;-78
2022/09/01 00:14:32;;;;;;;4.93;2.60;;;;;;;16.89;82.45;101209.38;680569;28;1380;-81
2022/09/01 00:14:53;;;;;;;4.53;2.50;;;;;;;16.87;82.62;101195.28;685148;28;1155;-83
2022/09/01 00:15:14;;;;;;;4.60;2.60;;;;;;;16.84;82.13;101193.59;685037;28;1480;-82
2022/09/01 00:15:35;;;;;;;3.95;2.50;;;;;;;16.85;82.23;101194.47;679136;29;1703;-80
2022/09/01 00:15:58;;;;;;;4.78;2.50;;;;;;;16.82;82.28;101191.88;681204;28;4324;-82
2022/09/01 00:16:22;;;;;;;3.95;2.40;;;;;;;16.78;83.46;101184.94;681469;28;1291;-83
2022/09/01 00:16:42;;;;;;;3.70;2.35;;;;;;;16.78;82.55;101203.41;680438;28;1154;-81
2022/09/01 00:17:06;;;;;;;3.88;2.42;;;;;;;16.80;82.12;101222.75;681112;28;1203;-80
2022/09/01 00:17:32;;;;;;;4.40;2.70;;;;;;;16.79;81.87;101203.38;684109;28;1400;-79
2022/09/01 00:17:56;;;;;;;4.70;2.55;;;;;;;16.76;81.91;101218.44;684931;28;1604;-80
2022/09/01 00:18:19;;;;;;;3.72;2.50;;;;;;;16.77;81.99;101209.63;685798;28;1164;-81
2022/09/01 00:18:41;;;;;;;4.72;2.53;;;;;;;16.76;81.93;101203.44;686987;28;4296;-82
2022/09/01 00:19:07;;;;;;;5.53;2.50;;;;;;;16.74;81.94;101221.09;686907;28;1068;-79
2022/09/01 00:19:28;;;;;;;4.00;2.60;;;;;;;16.75;81.64;101216.69;687848;28;1323;-82
2022/09/01 00:19:49;;;;;;;3.90;2.40;;;;;;;16.74;81.55;101191.19;683018;28;1313;-81
2022/09/01 00:20:10;;;;;;;4.32;2.60;;;;;;;16.73;81.32;101219.34;683217;28;1390;-82
2022/09/01 00:20:34;;;;;;;4.53;2.45;;;;;;;16.73;81.97;101215.88;683398;28;1161;-81
2022/09/01 00:20:58;;;;;;;3.88;2.50;;;;;;;16.76;82.46;101215.78;684152;28;1462;-82
2022/09/01 00:21:41;;;;;;;4.18;2.70;;;;;;;16.77;81.85;101220.19;680583;28;1385;-82
2022/09/01 00:22:03;;;;;;;4.18;2.40;;;;;;;16.75;82.53;101212.25;676542;29;4757;-81
2022/09/01 00:22:28;;;;;;;4.30;2.50;;;;;;;16.76;82.46;101189.38;680094;28;1243;-82
2022/09/01 00:22:49;;;;;;;4.30;2.50;;;;;;;16.76;82.86;101207.88;679939;29;1485;-80
2022/09/01 00:23:13;;;;;;;3.40;2.45;;;;;;;16.74;82.97;101189.44;680897;28;1348;-82
2022/09/01 00:23:36;;;;;;;3.75;2.42;;;;;;;16.73;82.66;101192.09;682233;28;1455;-80
2022/09/01 00:23:58;;;;;;;3.78;2.60;;;;;;;16.73;82.94;101205.31;682334;28;1366;-81
2022/09/01 00:24:24;;;;;;;4.75;2.60;;;;;;;16.72;82.47;101203.56;681653;28;1915;-80
2022/09/01 00:24:45;;;;;;;5.57;2.60;;;;;;;16.73;83.48;101218.50;671152;28;4305;-81
2022/09/01 00:25:09;;;;;;;4.47;2.65;;;;;;;16.70;84.19;101203.59;682058;28;1399;-82
2022/09/01 00:25:30;;;;;;;3.92;2.45;;;;;;;16.69;82.62;101210.63;681829;28;1553;-82
2022/09/01 00:25:52;;;;;;;4.03;2.40;;;;;;;16.69;82.24;101208.00;682222;28;1287;-81
2022/09/01 00:26:12;;;;;;;3.85;2.40;;;;;;;16.71;81.89;101220.28;679714;28;1449;-81
2022/09/01 00:26:33;;;;;;;3.13;2.25;;;;;;;16.69;81.91;101210.63;682256;28;1416;-81
2022/09/01 00:26:55;;;;;;;3.10;2.40;;;;;;;16.68;82.67;101200.09;685630;28;1295;-81
2022/09/01 00:27:16;;;;;;;4.10;2.50;;;;;;;16.69;82.34;101189.50;676189;28;1337;-80
2022/09/01 00:27:37;;;;;;;4.40;2.40;;;;;;;16.68;82.22;101215.94;680683;28;1198;-80
2022/09/01 00:27:59;;;;;;;3.37;2.30;;;;;;;16.64;82.96;101225.72;679688;28;4245;-79
2022/09/01 00:28:20;;;;;;;3.67;2.25;;;;;;;16.64;82.34;101212.53;676966;29;1172;-82
2022/09/01 00:28:41;;;;;;;3.30;2.42;;;;;;;16.67;83.55;101216.88;677645;29;1417;-82
2022/09/01 00:29:05;;;;;;;4.00;2.58;;;;;;;16.64;82.65;101194.03;677617;29;1264;-78
2022/09/01 00:29:30;;;;;;;4.40;2.50;;;;;;;16.65;82.12;101211.59;677030;29;1348;-82
2022/09/01 00:29:51;;;;;;;4.40;2.47;;;;;;;16.67;81.91;101219.50;682811;28;1421;-81
2022/09/01 00:30:12;;;;;;;4.05;2.60;;;;;;;16.64;82.80;101206.34;682199;28;1263;-82
2022/09/01 00:30:35;;;;;;;3.67;2.53;;;;;;;16.65;82.62;101216.88;679312;28;1354;-80
2022/09/01 00:30:57;;;;;;;3.50;2.60;;;;;;;16.67;82.21;101195.75;678952;28;4305;-80
2022/09/01 00:31:18;;;;;;;4.05;2.53;;;;;;;16.67;82.90;101193.97;681041;28;1415;-79
2022/09/01 00:31:40;;;;;;;3.80;2.50;;;;;;;16.68;81.94;101198.34;679392;28;1296;-81
2022/09/01 00:32:04;;;;;;;4.38;2.60;;;;;;;16.68;81.87;101232.66;679619;29;1353;-81
2022/09/01 00:32:26;;;;;;;3.38;2.40;;;;;;;16.69;81.85;101222.97;677938;28;1354;-79
2022/09/01 00:32:47;;;;;;;4.60;2.45;;;;;;;16.67;82.73;101196.59;684837;28;1381;-81
2022/09/01 00:33:10;;;;;;;4.57;2.60;;;;;;;16.65;82.32;101221.28;679789;29;1109;-82
2022/09/01 00:33:32;;;;;;;5.65;2.53;;;;;;;16.66;82.97;101223.91;677363;29;1460;-80
2022/09/01 00:33:53;;;;;;;4.85;2.55;;;;;;;16.67;83.15;101203.66;672874;28;4417;-82
2022/09/01 00:34:15;;;;;;;3.90;2.60;;;;;;;16.66;83.01;101200.13;682552;28;1548;-81
2022/09/01 00:34:36;;;;;;;3.97;2.70;;;;;;;16.67;82.70;101217.72;681707;28;1374;-80
2022/09/01 00:34:56;;;;;;;3.78;2.63;;;;;;;16.67;82.54;101235.34;682309;28;1297;-81
2022/09/01 00:35:19;;;;;;;3.63;2.50;;;;;;;16.67;82.05;101227.44;679170;28;1503;-82
2022/09/01 00:35:39;;;;;;;4.40;2.58;;;;;;;16.68;82.79;101215.94;677037;29;1285;-78
2022/09/01 00:36:01;;;;;;;4.80;2.47;;;;;;;16.71;82.93;101225.56;679699;28;1435;-83
2022/09/01 00:36:25;;;;;;;4.35;2.50;;;;;;;16.72;82.25;101195.63;682526;28;1615;-79
2022/09/01 00:36:46;;;;;;;4.30;2.70;;;;;;;16.68;82.71;101206.28;681374;28;4322;-80
2022/09/01 00:37:07;;;;;;;3.92;2.45;;;;;;;16.68;82.44;101208.03;682211;28;1359;-81
2022/09/01 00:37:28;;;;;;;3.60;2.58;;;;;;;16.68;82.38;101205.38;682413;28;1131;-82
2022/09/01 00:37:48;;;;;;;3.70;2.40;;;;;;;16.71;82.12;101200.03;685368;28;1270;-80
2022/09/01 00:38:09;;;;;;;3.75;2.70;;;;;;;16.69;82.29;101220.31;685343;28;1313;-80
2022/09/01 00:38:32;;;;;;;3.72;2.50;;;;;;;16.69;82.47;101208.00;685644;28;1285;-80
2022/09/01 00:38:53;;;;;;;3.85;2.50;;;;;;;16.67;82.38;101212.44;685858;28;4773;-81
2022/09/01 00:39:14;;;;;;;3.47;2.40;;;;;;;16.68;82.09;101201.00;681564;28;1297;-80
2022/09/01 00:39:38;;;;;;;4.28;2.40;;;;;;;16.68;82.37;101203.63;683011;28;1458;-80
2022/09/01 00:39:58;;;;;;;3.72;2.60;;;;;;;16.69;82.98;101220.31;683152;28;4957;-83
2022/09/01 00:40:19;;;;;;;4.00;2.50;;;;;;;16.68;82.38;101195.72;682514;28;1561;-81
2022/09/01 00:40:40;;;;;;;5.13;2.50;;;;;;;16.70;82.36;101203.59;681956;28;1367;-79
2022/09/01 00:41:01;;;;;;;4.47;2.30;;;;;;;16.67;82.24;101204.53;682726;28;1689;-83
2022/09/01 00:41:25;;;;;;;4.57;2.72;;;;;;;16.65;82.00;101194.91;685489;28;1783;-81
2022/09/01 00:41:46;;;;;;;4.60;2.80;;;;;;;16.67;81.95;101195.75;682113;28;1193;-82
2022/09/01 00:42:08;;;;;;;4.78;2.60;;;;;;;16.66;82.09;101218.63;678085;28;1457;-80
2022/09/01 00:42:29;;;;;;;3.50;2.60;;;;;;;16.67;82.14;101203.66;680411;28;1493;-81
2022/09/01 00:42:52;;;;;;;3.67;2.50;;;;;;;16.67;81.82;101203.66;682178;28;4343;-81
2022/09/01 00:43:29;;;;;;;3.75;2.40;;;;;;;16.65;82.60;101208.94;681216;28;1336;-80
2022/09/01 00:43:53;;;;;;;3.45;2.40;;;;;;;16.67;83.00;101207.16;684525;28;1362;-80
2022/09/01 00:44:17;;;;;;;4.47;2.33;;;;;;;16.68;82.51;101216.84;682296;28;1964;-82
2022/09/01 00:44:40;;;;;;;4.60;2.50;;;;;;;16.69;82.26;101193.94;681214;28;1466;-81
2022/09/01 00:45:01;;;;;;;4.50;2.40;;;;;;;16.70;82.20;101227.34;679776;28;1150;-82
2022/09/01 00:45:21;;;;;;;4.15;2.50;;;;;;;16.67;82.54;101215.09;678621;28;1329;-78
2022/09/01 00:45:45;;;;;;;3.88;2.60;;;;;;;16.71;82.59;101209.72;678821;29;4349;-82
2022/09/01 00:46:08;;;;;;;4.13;2.53;;;;;;;16.69;82.41;101213.25;680302;28;1595;-79
2022/09/01 00:46:42;;;;;;;3.72;2.53;;;;;;;16.69;82.91;101212.41;677453;29;1531;-82
2022/09/01 00:47:05;;;;;;;3.67;2.50;;;;;;;16.72;82.40;101230.81;683322;28;1523;-81
2022/09/01 00:47:31;;;;;;;4.00;2.40;;;;;;;16.71;81.99;101221.16;681344;28;1259;-81
2022/09/01 00:47:54;;;;;;;4.70;2.40;;;;;;;16.69;81.76;101191.28;679066;29;1429;-79
2022/09/01 00:48:20;;;;;;;3.75;2.25;;;;;;;16.69;82.54;101221.19;679264;29;1268;-81
2022/09/01 00:48:41;;;;;;;4.35;2.70;;;;;;;16.71;82.50;101193.91;679346;28;4305;-83
2022/09/01 00:49:08;;;;;;;5.63;3.08;;;;;;;16.68;82.02;101198.34;686920;28;1364;-82
2022/09/01 00:49:32;;;;;;;4.03;2.40;;;;;;;16.72;81.96;101198.28;686733;28;1611;-81
2022/09/01 00:49:53;;;;;;;4.13;2.40;;;;;;;16.68;81.94;101206.28;688106;28;1205;-83
2022/09/01 00:50:16;;;;;;;4.72;2.60;;;;;;;16.69;82.36;101197.44;686148;28;1450;-81
2022/09/01 00:50:41;;;;;;;4.18;2.50;;;;;;;16.72;82.38;101227.31;687721;28;1348;-78
2022/09/01 00:51:03;;;;;;;3.65;2.40;;;;;;;16.72;81.70;101190.34;684959;28;1280;-80
2022/09/01 00:51:25;;;;;;;3.90;2.38;;;;;;;16.72;82.15;101195.63;680098;28;1362;-80
2022/09/01 00:51:51;;;;;;;3.72;2.38;;;;;;;16.68;81.89;101203.63;681512;28;4338;-81
2022/09/01 00:52:14;;;;;;;4.80;2.50;;;;;;;16.71;81.91;101196.53;681103;28;1396;-81
2022/09/01 00:52:49;;;;;;;3.83;2.42;;;;;;;16.68;81.76;101201.00;682754;28;1454;-80
2022/09/01 00:53:13;;;;;;;4.45;2.40;;;;;;;16.70;82.27;101200.97;682163;28;1387;-82
2022/09/01 00:53:35;;;;;;;3.78;2.63;;;;;;;16.72;81.97;101212.34;678891;29;1116;-82
2022/09/01 00:53:57;;;;;;;4.88;2.65;;;;;;;16.72;81.74;101212.34;677178;29;1417;-78
2022/09/01 00:54:22;;;;;;;4.38;2.45;;;;;;;16.71;81.66;101186.84;679735;28;1437;-81
2022/09/01 00:54:48;;;;;;;3.88;2.38;;;;;;;16.72;81.36;101207.06;678916;28;4724;-80
2022/09/01 00:55:20;;;;;;;4.28;2.20;;;;;;;16.70;81.10;101198.31;682670;28;1138;-80
2022/09/01 00:55:43;;;;;;;3.10;2.25;;;;;;;16.72;83.00;101198.28;685030;28;1293;-82
2022/09/01 00:56:05;;;;;;;4.15;2.42;;;;;;;16.75;82.38;101212.25;684924;28;1422;-82
2022/09/01 00:56:27;;;;;;;4.63;2.58;;;;;;;16.76;82.38;101192.03;685061;28;1235;-83
2022/09/01 00:56:48;;;;;;;4.07;2.40;;;;;;;16.76;82.19;101216.66;684295;28;1374;-82
2022/09/01 00:57:11;;;;;;;3.47;2.20;;;;;;;16.80;81.15;101191.06;685498;28;1335;-82
2022/09/01 00:57:33;;;;;;;4.22;2.40;;;;;;;16.77;81.25;101189.34;684873;28;1324;-79
2022/09/01 00:57:55;;;;;;;4.53;2.50;;;;;;;16.79;81.08;101187.53;687335;28;4333;-83
2022/09/01 00:58:16;;;;;;;3.50;2.30;;;;;;;16.80;81.12;101217.47;686040;28;1261;-80
2022/09/01 00:58:37;;;;;;;4.13;2.37;;;;;;;16.80;81.69;101207.75;686511;28;1556;-80
2022/09/01 00:59:04;;;;;;;4.07;2.33;;;;;;;16.78;81.52;101212.22;685103;28;1347;-81
2022/09/01 00:59:26;;;;;;;4.15;2.42;;;;;;;16.77;81.33;101207.84;684478;28;1260;-80
2022/09/01 01:00:22;;;;;;;3.80;2.40;;;;;;;16.81;82.93;101190.16;681871;28;1348;-81
2022/09/01 01:00:52;;;;;;;3.85;2.45;;;;;;;16.81;82.38;101195.44;680790;28;4249;-79
2022/09/01 01:01:14;;;;;;;5.22;2.60;;;;;;;16.83;81.29;101196.25;680623;28;1183;-81
2022/09/01 01:01:47;;;;;;;4.55;2.53;;;;;;;16.88;80.05;101209.34;683046;28;1242;-81
2022/09/01 01:02:10;;;;;;;4.65;2.40;;;;;;;16.89;80.34;101193.53;682075;28;1326;-80
2022/09/01 01:02:37;;;;;;;3.63;2.38;;;;;;;16.92;79.83;101197.84;683941;28;1581;-82
2022/09/01 01:02:58;;;;;;;3.45;2.35;;;;;;;16.93;80.31;101189.88;685344;28;1352;-81
2022/09/01 01:03:26;;;;;;;3.95;2.45;;;;;;;16.92;80.57;101209.31;685371;28;1440;-82
2022/09/01 01:03:47;;;;;;;3.95;2.50;;;;;;;16.92;81.01;101182.91;678525;28;4367;-79
2022/09/01 01:04:13;;;;;;;4.13;2.58;;;;;;;16.91;81.71;101218.13;679003;28;1998;-80
2022/09/01 01:04:34;;;;;;;4.07;2.50;;;;;;;16.90;81.56;101208.44;681725;28;1607;-81
2022/09/01 01:04:58;;;;;;;3.83;2.33;;;;;;;16.91;80.62;101207.56;677622;28;1243;-82
2022/09/01 01:05:20;;;;;;;3.58;2.40;;;;;;;16.90;83.10;101213.72;678580;29;1511;-81
2022/09/01 01:05:52;;;;;;;4.15;2.67;;;;;;;16.87;82.15;101216.41;682630;28;1530;-81
2022/09/01 01:06:15;;;;;;;4.43;2.53;;;;;;;16.89;81.01;101188.25;680425;28;1236;-79
2022/09/01 01:06:48;;;;;;;3.85;2.50;;;;;;;16.85;82.40;101203.25;678888;29;1331;-83
2022/09/01 01:07:10;;;;;;;4.90;2.40;;;;;;;16.86;81.56;101209.38;679280;28;4750;-82
2022/09/01 01:07:37;;;;;;;4.40;2.20;;;;;;;16.84;81.88;101201.50;681425;28;1452;-82
2022/09/01 01:08:10;;;;;;;4.03;2.25;;;;;;;16.83;81.21;101197.13;678877;28;1552;-80
2022/09/01 01:08:33;;;;;;;4.22;2.42;;;;;;;16.81;82.20;101183.09;681646;28;1364;-80
2022/09/01 01:09:02;;;;;;;4.30;2.50;;;;;;;16.79;82.51;101205.16;676497;29;1481;-83
2022/09/01 01:09:24;;;;;;;4.60;2.30;;;;;;;16.79;81.66;101202.50;680201;28;1195;-80
2022/09/01 01:09:45;;;;;;;3.90;2.28;;;;;;;16.80;83.22;101194.56;678870;28;4393;-82
2022/09/01 01:10:10;;;;;;;4.50;2.50;;;;;;;16.78;82.31;101203.41;682059;28;1728;-81
2022/09/01 01:10:35;;;;;;;3.97;2.40;;;;;;;16.76;81.96;101199.94;681611;28;1291;-81
2022/09/01 01:10:56;;;;;;;4.72;2.38;;;;;;;16.76;82.96;101208.72;679272;29;1676;-79
2022/09/01 01:11:18;;;;;;;4.43;2.53;;;;;;;16.75;82.23;101185.00;681373;28;1420;-82
2022/09/01 01:11:39;;;;;;;4.57;2.40;;;;;;;16.74;82.61;101183.25;685372;28;1446;-83
2022/09/01 01:12:03;;;;;;;3.53;2.40;;;;;;;16.75;82.12;101195.56;685336;28;1365;-81
2022/09/01 01:12:26;;;;;;;3.42;2.28;;;;;;;16.74;82.15;101184.16;684941;28;1157;-81
2022/09/01 01:12:50;;;;;;;4.00;2.50;;;;;;;16.73;81.98;101182.41;679992;28;4448;-81
2022/09/01 01:13:16;;;;;;;4.50;2.65;;;;;;;16.74;81.72;101181.50;681925;28;1375;-82
2022/09/01 01:13:49;;;;;;;3.72;2.47;;;;;;;16.76;81.44;101202.59;681814;28;1552;-78
2022/09/01 01:14:11;;;;;;;5.10;2.80;;;;;;;16.75;82.03;101206.13;681838;28;1510;-83
2022/09/01 01:14:38;;;;;;;4.72;2.50;;;;;;;16.72;82.02;101187.72;683931;28;1240;-80
2022/09/01 01:14:59;;;;;;;4.80;2.50;;;;;;;16.74;81.33;101207.91;685064;28;1475;-82
2022/09/01 01:15:21;;;;;;;4.38;2.47;;;;;;;16.73;81.61;101185.03;684628;28;1386;-81
2022/09/01 01:15:47;;;;;;;4.60;2.60;;;;;;;16.72;82.53;101208.84;681381;28;4416;-81
2022/09/01 01:16:10;;;;;;;4.00;2.60;;;;;;;16.73;81.95;101187.69;676288;29;1571;-80
2022/09/01 01:16:31;;;;;;;3.72;2.55;;;;;;;16.74;82.45;101200.00;678042;28;1406;-79
2022/09/01 01:16:53;;;;;;;3.00;2.30;;;;;;;16.74;81.39;101193.81;678081;28;1284;-79
2022/09/01 01:17:19;;;;;;;3.05;2.30;;;;;;;16.72;81.26;101182.44;680440;29;1274;-81
2022/09/01 01:17:40;;;;;;;3.60;2.20;;;;;;;16.71;80.99;101193.91;680818;28;1410;-82
2022/09/01 01:18:00;;;;;;;3.83;2.30;;;;;;;16.68;81.44;101187.78;681098;29;1368;-81
2022/09/01 01:18:21;;;;;;;3.10;2.30;;;;;;;16.66;81.65;101178.16;680383;29;1265;-83
2022/09/01 01:18:42;;;;;;;3.30;2.30;;;;;;;16.65;81.59;101194.91;673857;29;5384;-82
2022/09/01 01:19:04;;;;;;;4.60;2.50;;;;;;;16.65;81.61;101177.28;674726;29;1315;-81
2022/09/01 01:23:07;;;;;;;4.95;2.30;;;;;;;16.62;83.31;101179.13;689250;28;1544;-82
2022/09/01 01:23:38;;;;;;;4.05;2.40;;;;;;;16.63;83.17;101189.66;679013;28;1341;-79
2022/09/01 01:24:18;;;;;;;4.32;2.40;;;;;;;16.65;83.36;101185.19;675528;28;1330;-79
2022/09/01 01:24:39;;;;;;;4.93;2.53;;;;;;;16.66;82.26;101179.03;681457;28;4349;-82
2022/09/01 01:25:00;;;;;;;3.95;2.40;;;;;;;16.64;81.90;101183.47;679693;29;1388;-81
2022/09/01 01:25:22;;;;;;;3.85;2.30;;;;;;;16.66;81.24;101188.72;681756;28;1289;-79
2022/09/01 01:25:49;;;;;;;3.35;2.30;;;;;;;16.64;81.27;101180.84;685853;28;1460;-79
2022/09/01 01:26:10;;;;;;;3.85;2.17;;;;;;;16.64;81.13;101186.13;687462;28;1502;-82
2022/09/01 01:26:30;;;;;;;5.03;2.42;;;;;;;16.62;82.96;101187.91;688050;28;1342;-80
2022/09/01 01:26:58;;;;;;;4.00;2.40;;;;;;;16.62;82.71;101181.78;685011;28;1446;-82
2022/09/01 01:27:20;;;;;;;4.25;2.40;;;;;;;16.60;82.16;101187.09;686496;28;1275;-80
2022/09/01 01:27:42;;;;;;;3.60;2.40;;;;;;;16.60;82.16;101187.09;684140;28;4353;-79
2022/09/01 01:28:14;;;;;;;4.70;2.38;;;;;;;16.58;82.01;101180.09;680177;28;1236;-80
2022/09/01 01:28:38;;;;;;;3.20;2.38;;;;;;;16.58;82.17;101188.88;679429;29;1182;-82
2022/09/01 01:29:01;;;;;;;3.80;2.20;;;;;;;16.58;81.92;101185.38;679976;28;1275;-83
2022/09/01 01:29:21;;;;;;;4.22;2.40;;;;;;;16.58;81.52;101191.50;682549;28;920;-81
2022/09/01 01:29:42;;;;;;;4.50;2.50;;;;;;;16.57;81.69;101184.50;685585;28;1236;-82
2022/09/01 01:30:08;;;;;;;5.07;2.40;;;;;;;16.56;82.21;101182.78;684589;28;1456;-82
2022/09/01 01:30:31;;;;;;;5.13;2.40;;;;;;;16.57;82.13;101188.91;682133;28;1191;-82
2022/09/01 01:30:55;;;;;;;4.32;2.40;;;;;;;16.57;81.80;101191.56;687149;28;4345;-82
2022/09/01 01:31:20;;;;;;;3.10;2.28;;;;;;;16.58;81.41;101194.16;687008;28;1534;-77
2022/09/01 01:31:41;;;;;;;4.00;2.40;;;;;;;16.58;83.12;101196.78;689675;28;1275;-82
2022/09/01 01:32:04;;;;;;;4.40;2.50;;;;;;;16.58;81.61;101188.88;686452;28;1388;-82
2022/09/01 01:32:25;;;;;;;4.22;2.60;;;;;;;16.58;81.73;101194.16;682319;28;1751;-82
2022/09/01 01:32:46;;;;;;;4.30;2.60;;;;;;;16.57;81.77;101194.19;681868;28;1346;-82
2022/09/01 01:33:07;;;;;;;4.25;2.47;;;;;;;16.57;81.50;101187.13;681682;28;1261;-79
2022/09/01 01:33:38;;;;;;;3.75;2.30;;;;;;;16.57;81.11;101187.13;679732;28;1520;-80
2022/09/01 01:33:59;;;;;;;4.30;2.45;;;;;;;16.57;81.06;101192.41;681539;28;4985;-83
2022/09/01 01:34:22;;;;;;;4.05;2.42;;;;;;;16.56;81.79;101185.41;681554;28;1385;-81
2022/09/01 01:34:44;;;;;;;4.28;2.50;;;;;;;16.57;81.46;101191.56;682645;28;1412;-83
2022/09/01 01:35:08;;;;;;;4.60;2.60;;;;;;;16.56;81.54;101185.41;680783;28;1418;-82
2022/09/01 01:35:30;;;;;;;5.00;2.58;;;;;;;16.56;81.97;101189.81;682838;28;1503;-81
2022/09/01 01:35:55;;;;;;;4.85;2.50;;;;;;;16.56;81.53;101198.63;682572;28;1366;-79
2022/09/01 01:36:25;;;;;;;4.18;2.60;;;;;;;16.56;83.30;101190.69;680104;28;1480;-83
2022/09/01 01:36:46;;;;;;;4.38;2.40;;;;;;;16.56;82.17;101193.34;679149;28;4310;-82
2022/09/01 01:37:09;;;;;;;3.83;2.40;;;;;;;16.55;83.08;101199.50;679613;28;1561;-82
2022/09/01 01:37:34;;;;;;;3.92;2.40;;;;;;;16.56;82.99;101192.44;683313;28;1426;-80
2022/09/01 01:37:55;;;;;;;3.60;2.40;;;;;;;16.54;82.70;101200.41;683379;28;1394;-79
2022/09/01 01:38:15;;;;;;;3.57;2.03;;;;;;;16.54;83.83;101197.75;679604;28;1173;-81
2022/09/01 01:38:36;;;;;;;4.72;2.55;;;;;;;16.53;82.77;101190.75;680409;28;1518;-80
2022/09/01 01:39:02;;;;;;;3.40;2.50;;;;;;;16.53;84.30;101201.28;679319;28;4877;-82
2022/09/01 01:39:27;;;;;;;3.50;2.42;;;;;;;16.52;82.97;101197.78;680697;28;1241;-81
2022/09/01 01:39:47;;;;;;;4.72;2.60;;;;;;;16.53;82.73;101196.00;682024;28;4517;-79
2022/09/01 01:40:14;;;;;;;3.60;2.33;;;;;;;16.52;82.09;101192.53;684663;28;1421;-81
2022/09/01 01:40:36;;;;;;;3.60;2.33;;;;;;;16.52;82.28;101196.94;685001;28;1564;-79
2022/09/01 01:40:57;;;;;;;3.30;2.35;;;;;;;16.52;83.02;101202.22;684524;28;1427;-81
2022/09/01 01:41:18;;;;;;;3.55;2.20;;;;;;;16.51;82.67;101197.84;681568;28;1535;-81
2022/09/01 01:41:44;;;;;;;4.13;2.30;;;;;;;16.52;82.24;101199.56;681463;28;1371;-80
2022/09/01 01:42:08;;;;;;;3.45;2.30;;;;;;;16.50;82.30;101196.97;686823;28;1348;-81
2022/09/01 01:42:29;;;;;;;5.10;2.40;;;;;;;16.51;82.37;101200.47;684370;28;1385;-79
2022/09/01 01:42:52;;;;;;;4.50;2.40;;;;;;;16.52;82.49;101199.56;687219;28;5060;-80
2022/09/01 01:43:16;;;;;;;3.50;2.22;;;;;;;16.50;81.89;101198.72;685317;28;1267;-83
2022/09/01 01:43:37;;;;;;;3.17;2.30;;;;;;;16.51;82.19;101201.31;684213;28;1242;-81
2022/09/01 01:44:00;;;;;;;3.90;2.45;;;;;;;16.52;84.41;101202.22;685425;28;1476;-83
2022/09/01 01:44:27;;;;;;;4.90;2.30;;;;;;;16.49;83.01;101207.53;681178;28;1903;-82
2022/09/01 01:44:51;;;;;;;4.10;2.40;;;;;;;16.49;82.48;101199.63;679498;29;1278;-80
2022/09/01 01:45:16;;;;;;;4.45;2.35;;;;;;;16.48;82.28;101198.75;684353;28;1477;-80
2022/09/01 01:45:36;;;;;;;3.45;2.30;;;;;;;16.46;82.16;101200.56;681638;28;1472;-81
2022/09/01 01:46:01;;;;;;;3.40;2.30;;;;;;;16.47;82.46;101198.78;681734;28;4235;-83
2022/09/01 01:46:26;;;;;;;4.70;2.30;;;;;;;16.48;83.18;101206.69;678879;28;1389;-79
2022/09/01 01:46:53;;;;;;;4.50;2.50;;;;;;;16.46;82.75;101202.31;679988;28;1340;-82
2022/09/01 01:47:16;;;;;;;3.63;2.30;;;;;;;16.47;82.22;101199.66;681554;28;1332;-82
2022/09/01 01:47:38;;;;;;;3.72;2.33;;;;;;;16.46;82.50;101197.94;682150;28;1637;-81
2022/09/01 01:47:59;;;;;;;3.70;2.35;;;;;;;16.46;82.93;101199.69;685767;28;1378;-82
2022/09/01 01:48:22;;;;;;;3.53;2.30;;;;;;;16.47;82.48;101201.44;685562;28;1324;-81
2022/09/01 01:48:44;;;;;;;3.83;2.47;;;;;;;16.47;83.95;101201.44;685524;28;4290;-84
2022/09/01 01:49:05;;;;;;;3.63;2.40;;;;;;;16.47;83.23;101196.16;685544;28;1390;-83
2022/09/01 01:49:27;;;;;;;3.40;2.30;;;;;;;16.48;83.25;101198.75;679332;28;1591;-82
2022/09/01 01:49:48;;;;;;;4.07;2.40;;;;;;;16.49;82.33;101204.91;681964;28;1491;-82
2022/09/01 01:50:09;;;;;;;3.90;2.40;;;;;;;16.50;82.42;101209.28;676976;29;1279;-82
2022/09/01 01:50:34;;;;;;;3.70;2.30;;;;;;;16.48;82.49;101203.19;684671;28;1308;-82
2022/09/01 01:50:58;;;;;;;4.30;2.45;;;;;;;16.49;82.16;101204.91;680102;29;1815;-81
2022/09/01 01:51:23;;;;;;;4.55;2.47;;;;;;;16.49;82.96;101200.50;679867;28;1447;-81
2022/09/01 01:51:49;;;;;;;3.60;2.33;;;;;;;16.51;83.03;101198.69;682303;28;4325;-83
2022/09/01 01:52:16;;;;;;;4.75;2.30;;;;;;;16.52;83.59;101195.16;679170;29;1507;-80
2022/09/01 01:52:38;;;;;;;4.07;2.58;;;;;;;16.53;83.19;101206.56;679747;28;1446;-83
2022/09/01 01:53:01;;;;;;;4.80;2.42;;;;;;;16.54;82.63;101196.91;682276;28;1226;-81
2022/09/01 01:53:22;;;;;;;4.82;2.40;;;;;;;16.54;82.62;101213.59;677121;29;1524;-81
2022/09/01 01:53:44;;;;;;;5.03;2.50;;;;;;;16.55;82.56;101199.50;680690;29;1361;-83
2022/09/01 01:54:06;;;;;;;4.30;2.20;;;;;;;16.57;82.34;101194.19;681617;28;1129;-82
2022/09/01 01:54:31;;;;;;;3.58;2.35;;;;;;;16.56;83.83;101203.88;681443;28;1244;-82
2022/09/01 01:54:52;;;;;;;3.83;2.63;;;;;;;16.56;83.08;101201.25;684947;28;4352;-80
2022/09/01 01:55:18;;;;;;;4.15;2.42;;;;;;;16.57;82.70;101197.69;685033;28;1315;-82